Time;durP1;ratioP1;P1;durP2;ratioP2;P2;SDS_P1;SDS_P2;PMS_P1;PMS_P2;Temp;Humidity;BMP_temperature;BMP_pressure;BME280_temperature;BME280_humidity;BME280_pressure;Samples;Min_cycle;Max_cycle;Signal;HPM_P1;HPM_P2
2023/10/22 00:00:43;;;;;;;;;;;15.90;67.30;;;;;;5111978;28;19928;-72
2023/10/22 00:03:09;;;;;;;;;;;15.90;67.30;;;;;;5111819;28;19923;-72
2023/10/22 00:05:34;;;;;;;;;;;15.90;67.40;;;;;;5112924;28;19950;-72
2023/10/22 00:08:00;;;;;;;;;;;15.90;67.40;;;;;;5113061;28;19919;-72
2023/10/22 00:10:26;;;;;;;;;;;15.90;67.30;;;;;;5111812;28;19943;-73
2023/10/22 00:12:51;;;;;;;;;;;15.90;67.30;;;;;;5111983;28;19953;-72
2023/10/22 00:15:17;;;;;;;;;;;15.90;67.30;;;;;;5113047;28;20014;-72
2023/10/22 00:17:42;;;;;;;;;;;15.90;67.40;;;;;;5111872;28;20356;-73
2023/10/22 00:20:08;;;;;;;;;;;15.90;67.40;;;;;;5145971;27;20280;-74
2023/10/22 00:22:34;;;;;;;;;;;15.90;67.30;;;;;;5146038;27;19920;-73
2023/10/22 00:24:59;;;;;;;;;;;15.90;67.30;;;;;;5111343;28;19926;-73
2023/10/22 00:27:25;;;;;;;;;;;15.90;67.30;;;;;;5094690;28;20047;-73
2023/10/22 00:29:50;;;;;;;;;;;15.90;67.40;;;;;;5129028;28;20339;-73
2023/10/22 00:32:16;;;;;;;;;;;15.90;67.40;;;;;;5094788;28;19984;-73
2023/10/22 00:34:43;;;;;;;;;;;15.90;67.40;;;;;;5094543;28;20367;-72
2023/10/22 00:37:09;;;;;;;;;;;15.90;67.30;;;;;;5094721;28;20458;-72
2023/10/22 00:39:35;;;;;;;;;;;15.90;67.30;;;;;;5094628;28;20018;-73
2023/10/22 00:42:00;;;;;;;;;;;15.90;67.40;;;;;;5094376;28;20336;-72
2023/10/22 00:44:26;;;;;;;;;;;15.90;67.30;;;;;;5094654;28;19977;-73
2023/10/22 00:46:51;;;;;;;;;;;15.90;67.30;;;;;;5094289;28;19932;-72
2023/10/22 00:49:17;;;;;;;;;;;15.90;67.40;;;;;;5094614;28;20267;-73
2023/10/22 00:51:44;;;;;;;;;;;15.90;67.40;;;;;;5094290;28;19942;-72
2023/10/22 00:54:09;;;;;;;;;;;15.90;67.40;;;;;;5094070;28;20410;-72
2023/10/22 00:56:35;;;;;;;;;;;15.90;67.40;;;;;;5094564;28;19931;-73
2023/10/22 00:59:01;;;;;;;;;;;15.90;68.20;;;;;;5094477;28;20375;-73
2023/10/22 01:01:27;;;;;;;;;;;15.90;67.40;;;;;;5094552;28;19927;-73
2023/10/22 01:03:53;;;;;;;;;;;15.90;67.40;;;;;;5094090;28;19926;-72
2023/10/22 01:06:19;;;;;;;;;;;15.90;67.40;;;;;;5094253;28;19924;-73
2023/10/22 01:08:45;;;;;;;;;;;15.90;67.50;;;;;;5094330;28;20409;-73
2023/10/22 01:11:11;;;;;;;;;;;15.90;67.40;;;;;;5094395;28;19919;-73
2023/10/22 01:13:37;;;;;;;;;;;15.90;67.50;;;;;;5094107;28;20380;-73
2023/10/22 01:16:04;;;;;;;;;;;15.80;67.40;;;;;;5094364;28;20011;-73
2023/10/22 01:18:29;;;;;;;;;;;15.90;67.50;;;;;;5093952;28;19945;-75
2023/10/22 01:20:55;;;;;;;;;;;15.90;67.50;;;;;;5094272;28;19924;-74
2023/10/22 01:23:21;;;;;;;;;;;15.90;67.50;;;;;;5094370;28;19977;-73
2023/10/22 01:25:46;;;;;;;;;;;15.90;67.60;;;;;;5097772;28;19930;-73
2023/10/22 01:28:12;;;;;;;;;;;15.90;67.60;;;;;;5111287;28;20339;-73
2023/10/22 01:30:37;;;;;;;;;;;15.80;67.50;;;;;;5111302;28;19919;-74
2023/10/22 01:33:03;;;;;;;;;;;15.90;67.70;;;;;;5112656;28;20294;-73
2023/10/22 01:35:28;;;;;;;;;;;15.80;67.50;;;;;;5114648;28;19920;-74
2023/10/22 01:37:54;;;;;;;;;;;15.90;67.60;;;;;;5114888;28;20019;-73
2023/10/22 01:40:19;;;;;;;;;;;15.90;67.70;;;;;;5115745;28;20282;-73
2023/10/22 01:42:45;;;;;;;;;;;15.90;67.60;;;;;;5114500;28;19930;-73
2023/10/22 01:45:11;;;;;;;;;;;15.90;67.70;;;;;;5114501;28;19919;-73
2023/10/22 01:47:36;;;;;;;;;;;15.80;67.70;;;;;;5114391;28;19924;-73
2023/10/22 01:50:04;;;;;;;;;;;15.80;67.70;;;;;;5114729;28;20406;-72
2023/10/22 01:52:30;;;;;;;;;;;15.80;67.70;;;;;;5114596;28;19919;-73
2023/10/22 01:54:55;;;;;;;;;;;15.80;67.70;;;;;;5114161;28;19966;-72
2023/10/22 01:57:21;;;;;;;;;;;15.80;67.70;;;;;;5114231;28;19965;-72
2023/10/22 01:59:47;;;;;;;;;;;15.80;67.80;;;;;;5114491;28;19919;-72
2023/10/22 02:02:12;;;;;;;;;;;15.90;67.80;;;;;;5114132;28;20012;-73
2023/10/22 02:04:38;;;;;;;;;;;15.90;67.80;;;;;;5114124;28;19920;-73
2023/10/22 02:07:04;;;;;;;;;;;15.80;67.80;;;;;;5113947;28;19931;-73
2023/10/22 02:09:30;;;;;;;;;;;15.80;67.80;;;;;;5114228;28;19920;-73
2023/10/22 02:11:56;;;;;;;;;;;15.80;67.90;;;;;;5114222;28;19945;-72
2023/10/22 02:14:21;;;;;;;;;;;15.80;68.00;;;;;;5113914;28;20294;-73
2023/10/22 02:16:50;;;;;;;;;;;15.80;68.00;;;;;;5114146;28;19927;-74
2023/10/22 02:19:15;;;;;;;;;;;15.80;68.00;;;;;;5115098;28;20064;-74
2023/10/22 02:21:41;;;;;;;;;;;15.80;68.10;;;;;;5114985;28;20002;-73
2023/10/22 02:24:08;;;;;;;;;;;15.80;68.10;;;;;;5114058;28;19919;-73
2023/10/22 02:26:34;;;;;;;;;;;15.80;68.10;;;;;;5102819;28;19976;-73
2023/10/22 02:28:59;;;;;;;;;;;15.80;68.10;;;;;;5114857;28;19919;-72
2023/10/22 02:31:25;;;;;;;;;;;15.90;68.20;;;;;;5114824;28;19924;-73
2023/10/22 02:33:59;;;;;;;;;;;15.80;68.20;;;;;;5115039;28;19920;-72
2023/10/22 02:36:25;;;;;;;;;;;15.80;68.30;;;;;;5096772;28;20390;-73
2023/10/22 02:38:51;;;;;;;;;;;15.80;68.30;;;;;;5130509;27;19919;-72
2023/10/22 02:41:16;;;;;;;;;;;15.80;68.30;;;;;;5130892;27;20016;-72
2023/10/22 02:43:42;;;;;;;;;;;15.80;69.10;;;;;;5096247;28;20387;-72
2023/10/22 02:46:07;;;;;;;;;;;15.80;68.40;;;;;;5130383;27;19931;-72
2023/10/22 02:48:33;;;;;;;;;;;15.80;68.40;;;;;;5114529;28;19920;-73
2023/10/22 02:51:01;;;;;;;;;;;15.80;68.40;;;;;;5096189;28;20002;-72
2023/10/22 02:53:28;;;;;;;;;;;15.80;68.40;;;;;;5114353;28;20333;-72
2023/10/22 02:56:01;;;;;;;;;;;15.80;68.40;;;;;;5096084;28;19920;-72
2023/10/22 02:58:28;;;;;;;;;;;15.70;68.40;;;;;;5096321;28;20431;-72
2023/10/22 03:00:55;;;;;;;;;;;15.80;68.50;;;;;;5114292;28;20384;-72
2023/10/22 03:03:21;;;;;;;;;;;15.70;68.50;;;;;;5096201;28;19973;-72
2023/10/22 03:05:46;;;;;;;;;;;15.70;68.50;;;;;;5114113;28;19928;-72
2023/10/22 03:08:12;;;;;;;;;;;15.70;68.50;;;;;;5095784;28;19919;-72
2023/10/22 03:10:37;;;;;;;;;;;15.70;68.60;;;;;;5114112;28;20329;-73
2023/10/22 03:13:04;;;;;;;;;;;15.70;68.60;;;;;;5095968;28;19927;-72
2023/10/22 03:15:30;;;;;;;;;;;15.70;68.60;;;;;;5114060;28;19920;-72
2023/10/22 03:17:56;;;;;;;;;;;15.70;68.70;;;;;;5095517;28;20298;-73
2023/10/22 03:20:23;;;;;;;;;;;15.70;68.70;;;;;;5095727;28;20422;-73
2023/10/22 03:22:48;;;;;;;;;;;15.70;68.70;;;;;;5113732;28;20056;-72
2023/10/22 03:25:14;;;;;;;;;;;15.70;68.70;;;;;;5113459;28;20006;-72
2023/10/22 03:27:39;;;;;;;;;;;15.70;68.70;;;;;;5095363;28;19931;-71
2023/10/22 03:30:05;;;;;;;;;;;15.70;68.70;;;;;;5095345;28;19931;-71
2023/10/22 03:32:31;;;;;;;;;;;15.70;68.80;;;;;;5095748;28;19920;-72
2023/10/22 03:34:56;;;;;;;;;;;15.70;68.80;;;;;;5113582;28;19965;-71
2023/10/22 03:37:22;;;;;;;;;;;15.70;69.50;;;;;;5095298;28;19958;-71
2023/10/22 03:39:47;;;;;;;;;;;15.70;68.80;;;;;;5095353;28;19962;-71
2023/10/22 03:42:13;;;;;;;;;;;15.70;68.80;;;;;;5095461;28;19965;-71
2023/10/22 03:44:38;;;;;;;;;;;15.70;68.90;;;;;;5095399;28;19920;-71
2023/10/22 03:47:04;;;;;;;;;;;15.70;68.90;;;;;;5095064;28;20291;-71
2023/10/22 03:49:29;;;;;;;;;;;15.70;68.90;;;;;;5095032;28;20007;-71
2023/10/22 03:51:55;;;;;;;;;;;15.70;68.90;;;;;;5095289;28;19923;-71
2023/10/22 03:54:20;;;;;;;;;;;15.70;69.00;;;;;;5095221;28;19955;-71
2023/10/22 03:56:46;;;;;;;;;;;15.80;69.00;;;;;;5094804;28;19969;-72
2023/10/22 03:59:11;;;;;;;;;;;15.70;69.00;;;;;;5113128;28;19931;-71
2023/10/22 04:01:37;;;;;;;;;;;15.70;69.00;;;;;;5094898;28;19927;-71
2023/10/22 04:04:02;;;;;;;;;;;15.70;69.00;;;;;;5095165;28;20065;-71
2023/10/22 04:06:28;;;;;;;;;;;15.70;69.00;;;;;;5094759;28;19924;-71
2023/10/22 04:08:53;;;;;;;;;;;15.70;69.00;;;;;;5095112;28;19982;-71
2023/10/22 04:11:20;;;;;;;;;;;15.70;69.10;;;;;;5094656;28;19926;-71
2023/10/22 04:13:45;;;;;;;;;;;15.70;69.10;;;;;;5094987;28;19974;-71
2023/10/22 04:16:14;;;;;;;;;;;15.70;69.10;;;;;;5112886;28;19927;-71
2023/10/22 04:18:40;;;;;;;;;;;15.70;69.10;;;;;;5112823;28;19920;-72
2023/10/22 04:21:11;;;;;;;;;;;15.70;69.20;;;;;;5112893;28;20305;-72
2023/10/22 04:23:37;;;;;;;;;;;15.70;69.20;;;;;;5112849;28;20328;-71
2023/10/22 04:26:02;;;;;;;;;;;15.70;69.20;;;;;;5094196;28;19927;-71
2023/10/22 04:28:28;;;;;;;;;;;15.70;69.20;;;;;;5094837;28;19971;-71
2023/10/22 04:30:54;;;;;;;;;;;15.70;69.30;;;;;;5094517;28;20355;-71
2023/10/22 04:33:20;;;;;;;;;;;15.70;69.20;;;;;;5112757;28;19920;-71
2023/10/22 04:35:45;;;;;;;;;;;15.70;69.30;;;;;;5094418;28;19930;-71
2023/10/22 04:38:13;;;;;;;;;;;15.70;69.30;;;;;;5094796;28;19942;-71
2023/10/22 04:40:39;;;;;;;;;;;15.70;69.30;;;;;;5094260;28;19920;-71
2023/10/22 04:43:04;;;;;;;;;;;15.70;69.30;;;;;;5094954;28;20011;-71
2023/10/22 04:45:30;;;;;;;;;;;15.70;69.30;;;;;;5094564;28;19965;-71
2023/10/22 04:47:55;;;;;;;;;;;15.70;69.40;;;;;;5112573;28;19928;-71
2023/10/22 04:50:21;;;;;;;;;;;15.60;69.30;;;;;;5128413;28;19919;-71
2023/10/22 04:52:47;;;;;;;;;;;15.60;69.40;;;;;;5094264;28;20015;-71
2023/10/22 04:55:13;;;;;;;;;;;15.70;69.40;;;;;;5094340;28;19920;-71
2023/10/22 04:57:39;;;;;;;;;;;15.70;69.40;;;;;;5094248;28;19927;-71
2023/10/22 05:00:07;;;;;;;;;;;15.60;69.40;;;;;;5112553;28;19919;-71
2023/10/22 05:02:33;;;;;;;;;;;15.60;69.40;;;;;;5112486;28;19920;-71
2023/10/22 05:04:58;;;;;;;;;;;15.70;69.50;;;;;;5094153;28;19928;-71
2023/10/22 05:07:23;;;;;;;;;;;15.60;69.50;;;;;;5094180;28;19924;-72
2023/10/22 05:09:49;;;;;;;;;;;15.70;69.60;;;;;;5097813;28;19970;-70
2023/10/22 05:12:15;;;;;;;;;;;15.60;69.50;;;;;;5132429;27;20538;-70
2023/10/22 05:14:40;;;;;;;;;;;15.60;70.30;;;;;;5116325;28;19924;-71
2023/10/22 05:17:06;;;;;;;;;;;15.60;69.50;;;;;;5097892;28;20375;-71
2023/10/22 05:19:32;;;;;;;;;;;15.70;69.60;;;;;;5116269;28;19919;-71
2023/10/22 05:21:57;;;;;;;;;;;15.60;69.60;;;;;;5116248;28;19927;-70
2023/10/22 05:24:23;;;;;;;;;;;15.60;69.60;;;;;;5097918;28;19920;-70
2023/10/22 05:26:48;;;;;;;;;;;15.60;69.70;;;;;;5116196;28;20278;-70
2023/10/22 05:29:14;;;;;;;;;;;15.60;69.70;;;;;;5098034;28;20390;-70
2023/10/22 05:31:39;;;;;;;;;;;15.60;69.70;;;;;;5116217;28;20332;-70
2023/10/22 05:34:05;;;;;;;;;;;15.60;69.70;;;;;;5116082;28;19944;-69
2023/10/22 05:36:31;;;;;;;;;;;15.60;69.80;;;;;;5097961;28;19920;-69
2023/10/22 05:38:56;;;;;;;;;;;15.60;69.80;;;;;;5097855;28;20371;-70
2023/10/22 05:41:22;;;;;;;;;;;15.60;69.80;;;;;;5097792;28;19956;-70
2023/10/22 05:43:49;;;;;;;;;;;15.60;69.80;;;;;;5115672;28;19927;-69
2023/10/22 05:46:14;;;;;;;;;;;15.60;69.80;;;;;;5097916;28;19924;-69
2023/10/22 05:48:40;;;;;;;;;;;15.60;69.90;;;;;;5115697;28;20264;-70
2023/10/22 05:51:05;;;;;;;;;;;15.60;69.90;;;;;;5097310;28;19969;-70
2023/10/22 05:53:31;;;;;;;;;;;15.60;70.70;;;;;;5115550;28;19971;-70
2023/10/22 05:55:57;;;;;;;;;;;15.60;70.00;;;;;;5097343;28;19927;-70
2023/10/22 05:58:24;;;;;;;;;;;15.60;70.00;;;;;;5097449;28;19997;-70
2023/10/22 06:00:49;;;;;;;;;;;15.60;70.00;;;;;;5097171;28;19965;-69
2023/10/22 06:03:15;;;;;;;;;;;15.60;70.10;;;;;;5097133;28;19923;-70
2023/10/22 06:05:40;;;;;;;;;;;15.60;70.10;;;;;;5115458;28;19920;-70
2023/10/22 06:08:06;;;;;;;;;;;15.60;70.10;;;;;;5115455;28;20374;-70
2023/10/22 06:10:32;;;;;;;;;;;15.60;70.10;;;;;;5115683;28;19920;-70
2023/10/22 06:12:57;;;;;;;;;;;15.60;70.10;;;;;;5115198;28;19920;-70
2023/10/22 06:15:23;;;;;;;;;;;15.60;70.10;;;;;;5115359;28;20033;-70
2023/10/22 06:17:48;;;;;;;;;;;15.60;70.20;;;;;;5097079;28;19927;-70
2023/10/22 06:20:14;;;;;;;;;;;15.60;70.10;;;;;;5096406;28;19920;-71
2023/10/22 06:22:39;;;;;;;;;;;15.60;70.20;;;;;;5115092;28;20004;-70
2023/10/22 06:25:05;;;;;;;;;;;15.60;70.10;;;;;;5096443;28;19923;-70
2023/10/22 06:27:30;;;;;;;;;;;15.60;70.10;;;;;;5130749;27;19928;-70
2023/10/22 06:29:56;;;;;;;;;;;15.60;70.10;;;;;;5130957;27;19920;-70
2023/10/22 06:32:21;;;;;;;;;;;15.60;70.10;;;;;;5096616;28;20379;-71
2023/10/22 06:34:47;;;;;;;;;;;15.60;70.10;;;;;;5096491;28;19927;-71
2023/10/22 06:37:12;;;;;;;;;;;15.60;70.20;;;;;;5114828;28;19943;-70
2023/10/22 06:39:38;;;;;;;;;;;15.60;70.20;;;;;;5114728;28;19920;-70
2023/10/22 06:42:04;;;;;;;;;;;15.50;70.10;;;;;;5096651;28;19965;-70
2023/10/22 06:44:29;;;;;;;;;;;15.60;70.20;;;;;;5114475;28;19920;-71
2023/10/22 06:46:55;;;;;;;;;;;15.60;70.10;;;;;;5114728;28;19963;-70
2023/10/22 06:49:20;;;;;;;;;;;15.60;70.10;;;;;;5096276;28;20422;-71
2023/10/22 06:51:46;;;;;;;;;;;15.50;70.10;;;;;;5096244;28;19919;-71
2023/10/22 06:54:11;;;;;;;;;;;15.50;70.10;;;;;;5130285;27;20283;-71
2023/10/22 06:56:36;;;;;;;;;;;15.50;70.10;;;;;;5096411;28;20019;-71
2023/10/22 06:59:03;;;;;;;;;;;15.60;70.10;;;;;;5114305;28;19927;-71
2023/10/22 07:01:28;;;;;;;;;;;15.50;70.10;;;;;;5096016;28;19919;-71
2023/10/22 07:03:54;;;;;;;;;;;15.60;70.10;;;;;;5130398;27;19926;-71
2023/10/22 07:06:20;;;;;;;;;;;15.50;70.10;;;;;;5114058;28;20296;-71
2023/10/22 07:08:45;;;;;;;;;;;15.50;70.10;;;;;;5095882;28;19931;-71
2023/10/22 07:11:11;;;;;;;;;;;15.50;70.00;;;;;;5129912;27;19920;-71
2023/10/22 07:13:36;;;;;;;;;;;15.50;70.10;;;;;;5130199;27;20324;-71
2023/10/22 07:16:02;;;;;;;;;;;15.50;70.10;;;;;;5129674;27;19920;-71
2023/10/22 07:18:28;;;;;;;;;;;15.50;70.10;;;;;;5095528;28;19920;-72
2023/10/22 07:20:53;;;;;;;;;;;15.50;70.10;;;;;;5095933;28;19923;-72
2023/10/22 07:23:19;;;;;;;;;;;15.50;70.10;;;;;;5113903;28;20524;-71
2023/10/22 07:25:45;;;;;;;;;;;15.50;70.10;;;;;;5099051;28;19975;-71
2023/10/22 07:28:13;;;;;;;;;;;15.60;70.10;;;;;;5112713;28;20332;-71
2023/10/22 07:30:45;;;;;;;;;;;15.50;70.10;;;;;;5112142;28;19920;-70
2023/10/22 07:33:10;;;;;;;;;;;15.50;70.10;;;;;;5112325;28;20431;-71
2023/10/22 07:35:36;;;;;;;;;;;15.50;70.10;;;;;;5113760;28;19920;-70
2023/10/22 07:38:01;;;;;;;;;;;15.50;70.10;;;;;;5112471;28;19920;-71
2023/10/22 07:40:27;;;;;;;;;;;15.50;70.10;;;;;;5112255;28;20115;-71
2023/10/22 07:42:53;;;;;;;;;;;15.50;70.10;;;;;;5095051;28;20369;-71
2023/10/22 07:45:18;;;;;;;;;;;15.50;70.10;;;;;;5112468;28;20469;-70
2023/10/22 07:47:44;;;;;;;;;;;15.50;70.10;;;;;;5111986;28;20010;-70
2023/10/22 07:50:10;;;;;;;;;;;15.50;70.10;;;;;;5112061;28;19931;-70
2023/10/22 07:52:36;;;;;;;;;;;15.50;70.10;;;;;;5113355;28;19992;-71
2023/10/22 07:55:01;;;;;;;;;;;15.50;70.10;;;;;;5113402;28;19927;-71
2023/10/22 07:57:27;;;;;;;;;;;15.50;70.10;;;;;;5113097;28;19923;-71
2023/10/22 07:59:53;;;;;;;;;;;15.50;70.10;;;;;;5112134;28;19919;-71
2023/10/22 08:02:18;;;;;;;;;;;15.50;70.10;;;;;;5111858;28;19926;-70
2023/10/22 08:04:44;;;;;;;;;;;15.50;70.10;;;;;;5111840;28;19973;-71
2023/10/22 08:07:09;;;;;;;;;;;15.50;70.10;;;;;;5111613;28;19920;-71
2023/10/22 08:09:35;;;;;;;;;;;15.50;70.10;;;;;;5112055;28;19928;-71
2023/10/22 08:12:00;;;;;;;;;;;15.50;70.10;;;;;;5111756;28;19924;-71
2023/10/22 08:14:26;;;;;;;;;;;15.50;70.10;;;;;;5111618;28;19920;-70
2023/10/22 08:16:51;;;;;;;;;;;15.50;70.00;;;;;;5112860;28;19919;-71
2023/10/22 08:19:17;;;;;;;;;;;15.50;70.00;;;;;;5111900;28;19985;-71
2023/10/22 08:21:42;;;;;;;;;;;15.50;70.00;;;;;;5113114;28;19927;-71
2023/10/22 08:24:08;;;;;;;;;;;15.50;70.00;;;;;;5112847;28;19924;-70
2023/10/22 08:26:33;;;;;;;;;;;15.50;70.00;;;;;;5111360;28;20405;-71
2023/10/22 08:28:59;;;;;;;;;;;15.50;70.00;;;;;;5111718;28;19927;-71
2023/10/22 08:31:25;;;;;;;;;;;15.60;70.00;;;;;;5111922;28;19930;-70
2023/10/22 08:33:50;;;;;;;;;;;15.60;70.20;;;;;;5111670;28;20392;-70
2023/10/22 08:36:16;;;;;;;;;;;15.60;70.10;;;;;;5111889;28;20347;-71
2023/10/22 08:38:41;;;;;;;;;;;15.50;70.00;;;;;;5112827;28;19923;-71
2023/10/22 08:41:13;;;;;;;;;;;15.50;70.00;;;;;;5111473;28;20417;-71
2023/10/22 08:43:41;;;;;;;;;;;15.50;70.00;;;;;;5149455;27;19926;-71
2023/10/22 08:46:06;;;;;;;;;;;15.60;70.00;;;;;;5116836;28;19978;-71
2023/10/22 08:48:32;;;;;;;;;;;15.60;70.00;;;;;;5115471;28;19959;-71
2023/10/22 08:51:00;;;;;;;;;;;15.60;70.00;;;;;;5117033;28;20452;-71
2023/10/22 08:53:26;;;;;;;;;;;15.50;70.70;;;;;;5150308;27;20383;-71
2023/10/22 08:55:53;;;;;;;;;;;15.60;70.00;;;;;;5115385;28;19919;-71
2023/10/22 08:58:19;;;;;;;;;;;15.60;70.00;;;;;;5115579;28;19919;-71
2023/10/22 09:00:45;;;;;;;;;;;15.60;70.00;;;;;;5115660;28;20010;-71
2023/10/22 09:03:12;;;;;;;;;;;15.60;70.00;;;;;;5115284;28;19919;-71
2023/10/22 09:05:38;;;;;;;;;;;15.60;70.00;;;;;;5115241;28;19926;-71
2023/10/22 09:08:04;;;;;;;;;;;15.60;70.80;;;;;;5149660;27;19924;-71
2023/10/22 09:10:31;;;;;;;;;;;15.60;70.00;;;;;;5115167;28;19927;-71
2023/10/22 09:13:12;;;;;;;;;;;15.60;70.00;;;;;;5116490;28;19920;-71
2023/10/22 09:15:38;;;;;;;;;;;15.60;70.00;;;;;;5115022;28;20325;-71
2023/10/22 09:18:04;;;;;;;;;;;15.60;70.00;;;;;;5116192;28;19919;-72
2023/10/22 09:20:30;;;;;;;;;;;15.60;70.00;;;;;;5115003;28;19926;-72
2023/10/22 09:23:16;;;;;;;;;;;15.60;70.00;;;;;;5115236;28;19924;-71
2023/10/22 09:25:42;;;;;;;;;;;15.60;70.00;;;;;;5097485;28;19927;-71
2023/10/22 09:28:11;;;;;;;;;;;15.60;70.00;;;;;;5116215;28;20326;-71
2023/10/22 09:30:36;;;;;;;;;;;15.60;70.00;;;;;;5115936;28;19924;-72
2023/10/22 09:33:02;;;;;;;;;;;15.60;70.00;;;;;;5114818;28;19919;-71
2023/10/22 09:35:27;;;;;;;;;;;15.60;70.00;;;;;;5114982;28;20331;-72
2023/10/22 09:37:54;;;;;;;;;;;15.60;70.00;;;;;;5114707;28;19926;-72
2023/10/22 09:40:21;;;;;;;;;;;15.60;70.00;;;;;;5115006;28;19920;-72
2023/10/22 09:42:47;;;;;;;;;;;15.60;70.00;;;;;;5114616;28;19920;-71
2023/10/22 09:45:13;;;;;;;;;;;15.60;70.00;;;;;;5114820;28;19920;-71
2023/10/22 09:47:40;;;;;;;;;;;15.60;70.00;;;;;;5114332;28;19942;-71
2023/10/22 09:50:08;;;;;;;;;;;15.60;70.00;;;;;;5115781;28;20382;-71
2023/10/22 09:52:35;;;;;;;;;;;15.60;69.90;;;;;;5114637;28;20111;-71
2023/10/22 09:55:04;;;;;;;;;;;15.60;70.00;;;;;;5113640;28;19920;-71
2023/10/22 09:57:30;;;;;;;;;;;15.60;70.00;;;;;;5114705;28;20523;-71
2023/10/22 10:00:01;;;;;;;;;;;15.60;70.00;;;;;;5115541;28;20457;-71
2023/10/22 10:02:27;;;;;;;;;;;15.60;69.90;;;;;;5114674;28;19928;-72
2023/10/22 10:04:53;;;;;;;;;;;15.60;70.00;;;;;;5114177;28;19919;-71
2023/10/22 10:07:22;;;;;;;;;;;15.60;69.90;;;;;;5114115;28;20076;-72
2023/10/22 10:09:48;;;;;;;;;;;15.60;70.00;;;;;;5114407;28;19923;-72
2023/10/22 10:12:13;;;;;;;;;;;15.60;69.90;;;;;;5115267;28;19926;-71
2023/10/22 10:14:43;;;;;;;;;;;15.60;69.90;;;;;;5114186;28;20022;-72
2023/10/22 10:17:09;;;;;;;;;;;15.70;69.90;;;;;;5113704;28;19982;-72
2023/10/22 10:19:35;;;;;;;;;;;15.60;69.90;;;;;;5115205;28;19955;-72
2023/10/22 10:22:01;;;;;;;;;;;15.60;69.90;;;;;;5113792;28;19942;-72
2023/10/22 10:24:27;;;;;;;;;;;15.60;69.90;;;;;;5115043;28;19989;-72
2023/10/22 10:29:37;;;;;;;;;;;15.70;69.90;;;;;;5110339;27;19912;-72
2023/10/22 10:35:00;;;;;;;;;;;15.70;69.70;;;;;;5110288;27;19919;-72
2023/10/22 10:37:26;;;;;;;;;;;15.70;69.60;;;;;;5108962;28;19970;-71
2023/10/22 10:39:52;;;;;;;;;;;15.70;69.60;;;;;;5108964;28;19943;-72
2023/10/22 10:45:15;;;;;;;;;;;15.70;69.50;;;;;;5090002;28;19918;-72
2023/10/22 10:47:41;;;;;;;;;;;15.70;69.50;;;;;;5088544;28;20425;-71
2023/10/22 10:50:12;;;;;;;;;;;15.80;69.60;;;;;;5088500;28;19924;-71
2023/10/22 10:58:00;;;;;;;;;;;15.80;69.40;;;;;;5110262;27;19912;-72
2023/10/22 11:00:28;;;;;;;;;;;15.80;69.40;;;;;;5109335;28;19920;-71
2023/10/22 11:02:54;;;;;;;;;;;15.80;69.50;;;;;;5110152;28;20352;-71
2023/10/22 11:05:39;;;;;;;;;;;15.80;69.40;;;;;;5108890;28;20436;-71
2023/10/22 11:08:05;;;;;;;;;;;15.80;69.40;;;;;;5109090;28;19920;-72
2023/10/22 11:10:31;;;;;;;;;;;15.80;69.30;;;;;;5108795;28;19963;-72
2023/10/22 11:13:05;;;;;;;;;;;15.80;69.30;;;;;;5108787;28;19962;-72
2023/10/22 11:15:32;;;;;;;;;;;15.80;69.40;;;;;;5108465;28;20015;-72
2023/10/22 11:18:02;;;;;;;;;;;15.80;69.40;;;;;;5108817;28;20299;-72
2023/10/22 11:20:27;;;;;;;;;;;15.80;69.30;;;;;;5108541;28;19999;-72
2023/10/22 11:22:53;;;;;;;;;;;15.80;69.30;;;;;;5109940;28;19966;-72
2023/10/22 11:25:19;;;;;;;;;;;15.70;69.30;;;;;;5108518;28;19946;-71
2023/10/22 11:27:45;;;;;;;;;;;15.80;69.40;;;;;;5108716;28;19968;-71
2023/10/22 11:30:10;;;;;;;;;;;15.80;69.30;;;;;;5108574;28;19924;-71
2023/10/22 11:32:46;;;;;;;;;;;15.80;69.30;;;;;;5108698;28;19920;-72
2023/10/22 11:35:11;;;;;;;;;;;15.80;69.30;;;;;;5142946;27;19932;-71
2023/10/22 11:37:41;;;;;;;;;;;15.80;69.30;;;;;;5108232;28;19924;-71
2023/10/22 11:43:03;;;;;;;;;;;15.80;69.30;;;;;;5110392;27;19916;-71
2023/10/22 11:45:31;;;;;;;;;;;15.80;69.30;;;;;;5108947;28;19926;-71
2023/10/22 11:48:17;;;;;;;;;;;15.80;69.30;;;;;;5109288;28;19950;-71
2023/10/22 11:50:44;;;;;;;;;;;15.80;69.30;;;;;;5108761;28;20379;-71
2023/10/22 11:53:09;;;;;;;;;;;15.80;69.30;;;;;;5108849;28;19926;-71
2023/10/22 11:55:35;;;;;;;;;;;15.80;69.30;;;;;;5108936;28;20011;-71
2023/10/22 11:58:01;;;;;;;;;;;15.70;69.30;;;;;;5108855;28;19942;-71
2023/10/22 12:00:26;;;;;;;;;;;15.80;69.30;;;;;;5108662;28;19927;-71
2023/10/22 12:02:52;;;;;;;;;;;15.70;69.30;;;;;;5108545;28;19978;-71
2023/10/22 12:05:18;;;;;;;;;;;15.70;69.30;;;;;;5108577;28;19920;-72
2023/10/22 12:07:43;;;;;;;;;;;15.70;69.30;;;;;;5110364;28;20023;-71
2023/10/22 12:10:10;;;;;;;;;;;15.70;69.30;;;;;;5108693;28;19927;-71
2023/10/22 12:12:35;;;;;;;;;;;15.70;69.30;;;;;;5108817;28;20018;-72
2023/10/22 12:15:01;;;;;;;;;;;15.70;69.30;;;;;;5108969;28;19963;-72
2023/10/22 12:17:26;;;;;;;;;;;15.70;69.30;;;;;;5108312;28;19920;-71
2023/10/22 12:19:52;;;;;;;;;;;15.70;69.30;;;;;;5109614;28;19974;-72
2023/10/22 12:22:19;;;;;;;;;;;15.70;69.20;;;;;;5108126;28;19932;-72
2023/10/22 12:24:45;;;;;;;;;;;15.70;69.30;;;;;;5108230;28;19994;-71
2023/10/22 12:27:10;;;;;;;;;;;15.70;69.20;;;;;;5108377;28;20211;-71
2023/10/22 12:29:36;;;;;;;;;;;15.70;69.30;;;;;;5108464;28;20375;-71
2023/10/22 12:32:01;;;;;;;;;;;15.70;69.20;;;;;;5108361;28;19940;-71
2023/10/22 12:34:28;;;;;;;;;;;15.70;69.20;;;;;;5109457;28;19927;-71
2023/10/22 12:36:53;;;;;;;;;;;15.70;69.20;;;;;;5108272;28;19920;-71
2023/10/22 12:39:20;;;;;;;;;;;15.70;69.20;;;;;;5109146;28;20383;-72
2023/10/22 12:41:46;;;;;;;;;;;15.70;69.20;;;;;;5107645;28;19974;-72
2023/10/22 12:44:12;;;;;;;;;;;15.70;69.20;;;;;;5108145;28;20399;-71
2023/10/22 12:46:37;;;;;;;;;;;15.70;69.20;;;;;;5109058;28;19920;-72
2023/10/22 12:49:03;;;;;;;;;;;15.70;69.20;;;;;;5108076;28;20363;-71
2023/10/22 12:51:29;;;;;;;;;;;15.70;69.20;;;;;;5108040;28;19943;-72
2023/10/22 12:53:54;;;;;;;;;;;15.70;69.20;;;;;;5096857;28;20438;-71
2023/10/22 12:56:20;;;;;;;;;;;15.70;69.10;;;;;;5094072;28;19971;-72
2023/10/22 12:58:47;;;;;;;;;;;15.70;69.10;;;;;;5094289;28;19924;-72
2023/10/22 13:01:15;;;;;;;;;;;15.70;69.10;;;;;;5093927;28;20375;-72
2023/10/22 13:03:40;;;;;;;;;;;15.70;69.10;;;;;;5095227;28;19920;-72
2023/10/22 13:06:06;;;;;;;;;;;15.80;69.10;;;;;;5094161;28;20406;-72
2023/10/22 13:08:32;;;;;;;;;;;15.80;69.00;;;;;;5095100;28;19946;-72
2023/10/22 13:10:58;;;;;;;;;;;15.80;69.00;;;;;;5093952;28;19920;-72
2023/10/22 13:13:24;;;;;;;;;;;15.80;69.00;;;;;;5093928;28;19920;-72
2023/10/22 13:15:50;;;;;;;;;;;15.80;69.00;;;;;;5093661;28;20467;-72
2023/10/22 13:18:16;;;;;;;;;;;15.80;68.90;;;;;;5093415;28;20003;-73
2023/10/22 13:20:42;;;;;;;;;;;15.80;69.00;;;;;;5093821;28;19928;-72
2023/10/22 13:23:07;;;;;;;;;;;15.80;68.90;;;;;;5093766;28;19920;-72
2023/10/22 13:25:34;;;;;;;;;;;15.70;68.90;;;;;;5094724;28;20458;-72
2023/10/22 13:27:59;;;;;;;;;;;15.80;68.90;;;;;;5093697;28;20181;-72
2023/10/22 13:30:26;;;;;;;;;;;15.80;69.00;;;;;;5094768;28;20363;-73
2023/10/22 13:32:51;;;;;;;;;;;15.80;69.00;;;;;;5094490;28;19927;-72
2023/10/22 13:35:17;;;;;;;;;;;15.80;68.90;;;;;;5093460;28;19920;-72
2023/10/22 13:37:42;;;;;;;;;;;15.80;68.90;;;;;;5093275;28;20304;-72
2023/10/22 13:40:08;;;;;;;;;;;15.80;68.90;;;;;;5093158;28;19920;-72
2023/10/22 13:42:33;;;;;;;;;;;15.80;68.90;;;;;;5092880;28;19932;-72
2023/10/22 13:44:59;;;;;;;;;;;15.80;68.90;;;;;;5093125;28;20337;-72
2023/10/22 13:47:24;;;;;;;;;;;15.80;68.90;;;;;;5093122;28;19927;-72
2023/10/22 13:49:50;;;;;;;;;;;15.70;68.80;;;;;;5092966;28;19920;-72
2023/10/22 13:52:16;;;;;;;;;;;15.80;68.80;;;;;;5092978;28;19971;-72
2023/10/22 13:54:41;;;;;;;;;;;15.80;68.80;;;;;;5093298;28;19927;-72
2023/10/22 13:57:07;;;;;;;;;;;15.80;68.80;;;;;;5092716;28;19973;-72
2023/10/22 13:59:33;;;;;;;;;;;15.80;68.80;;;;;;5093148;28;19927;-72
2023/10/22 14:01:59;;;;;;;;;;;15.80;68.90;;;;;;5094384;28;19924;-72
2023/10/22 14:04:24;;;;;;;;;;;15.80;68.80;;;;;;5101208;28;19950;-73
2023/10/22 14:06:50;;;;;;;;;;;15.80;68.90;;;;;;5112415;28;20362;-75
2023/10/22 14:09:16;;;;;;;;;;;15.80;68.80;;;;;;5093368;28;19920;-75
2023/10/22 14:11:41;;;;;;;;;;;15.80;68.90;;;;;;5090864;28;20252;-75
2023/10/22 14:14:07;;;;;;;;;;;15.80;68.90;;;;;;5090513;28;20351;-75
2023/10/22 14:16:33;;;;;;;;;;;15.80;68.80;;;;;;5090441;28;19920;-76
2023/10/22 14:18:59;;;;;;;;;;;15.80;68.80;;;;;;5091718;28;19924;-75
2023/10/22 14:21:24;;;;;;;;;;;15.80;68.80;;;;;;5090622;28;19924;-75
2023/10/22 14:23:50;;;;;;;;;;;15.80;68.80;;;;;;5090615;28;19927;-74
2023/10/22 14:26:15;;;;;;;;;;;15.80;68.80;;;;;;5092296;28;19997;-73